createdAt,value
2017-08-11T00:02:17.033Z,5.80
2017-08-11T00:04:48.506Z,6.50
2017-08-11T00:07:24.115Z,6.60
2017-08-11T00:09:56.607Z,6.57
2017-08-11T00:12:27.922Z,6.93
2017-08-11T00:14:59.013Z,9.53
2017-08-11T00:17:30.856Z,7.30
2017-08-11T00:20:03.172Z,9.40
2017-08-11T00:22:34.539Z,24.43
2017-08-11T00:25:05.606Z,6.03
2017-08-11T00:27:36.647Z,6.83
2017-08-11T00:30:10.203Z,5.93
2017-08-11T00:32:41.246Z,5.80
2017-08-11T00:35:12.340Z,6.93
2017-08-11T00:37:43.386Z,7.10
2017-08-11T00:40:15.225Z,11.00
2017-08-11T00:42:46.389Z,5.80
2017-08-11T00:45:18.289Z,6.70
2017-08-11T00:47:49.881Z,5.90
2017-08-11T00:50:23.666Z,4.73
2017-08-11T00:53:57.225Z,5.37
2017-08-11T00:56:29.127Z,6.30
2017-08-11T00:59:00.934Z,7.80
2017-08-11T01:01:32.087Z,6.60
2017-08-11T01:04:05.335Z,6.87
2017-08-11T01:06:36.867Z,5.97
2017-08-11T01:09:07.955Z,6.60
2017-08-11T01:11:39.217Z,6.60
2017-08-11T01:14:11.360Z,6.47
2017-08-11T01:16:42.423Z,9.37
2017-08-11T01:19:13.492Z,7.90
2017-08-11T01:21:44.871Z,9.73
2017-08-11T01:24:16.001Z,6.70
2017-08-11T01:26:47.082Z,6.47
2017-08-11T01:30:22.505Z,6.57
2017-08-11T01:32:54.604Z,8.33
2017-08-11T01:35:26.801Z,7.87
2017-08-11T01:37:57.875Z,6.50
2017-08-11T01:40:29.275Z,6.70
2017-08-11T01:43:00.338Z,5.80
2017-08-11T01:45:32.184Z,7.40
2017-08-11T01:48:05.056Z,9.23
2017-08-11T01:50:36.144Z,12.00
2017-08-11T01:53:09.523Z,9.17
2017-08-11T01:55:40.715Z,8.40
2017-08-11T01:58:13.203Z,8.23
2017-08-11T02:00:44.332Z,8.10
2017-08-11T02:03:15.482Z,8.67
2017-08-11T02:05:47.061Z,11.00
2017-08-11T02:08:19.075Z,12.70
2017-08-11T02:10:50.161Z,9.20
2017-08-11T02:13:23.494Z,9.40
2017-08-11T02:15:54.553Z,9.43
2017-08-11T02:18:26.216Z,8.80
2017-08-11T02:20:57.512Z,11.70
2017-08-11T02:23:28.579Z,8.70
2017-08-11T02:26:00.042Z,9.03
2017-08-11T02:28:31.104Z,10.20
2017-08-11T02:31:02.925Z,10.13
2017-08-11T02:33:34.374Z,9.37
2017-08-11T02:36:06.094Z,9.00
2017-08-11T02:38:37.196Z,8.87
2017-08-11T02:41:08.635Z,12.73
2017-08-11T02:43:40.046Z,8.13
2017-08-11T02:46:11.233Z,10.27
2017-08-11T02:48:42.661Z,9.13
2017-08-11T02:51:13.682Z,9.67
2017-08-11T02:53:44.728Z,11.07
2017-08-11T02:56:16.515Z,10.50
2017-08-11T02:58:47.812Z,10.80
2017-08-11T03:01:20.304Z,10.53
2017-08-11T03:03:51.384Z,13.57
2017-08-11T03:06:22.481Z,11.57
2017-08-11T03:08:53.983Z,11.40
2017-08-11T03:12:28.720Z,10.97
2017-08-11T03:15:00.282Z,9.40
2017-08-11T03:17:31.319Z,8.00
2017-08-11T03:20:04.686Z,8.33
2017-08-11T03:22:37.074Z,8.90
2017-08-11T03:25:08.152Z,8.50
2017-08-11T03:27:39.209Z,8.17
2017-08-11T03:30:11.609Z,11.03
2017-08-11T03:32:42.640Z,7.67
2017-08-11T03:35:14.056Z,10.23
2017-08-11T03:37:45.486Z,7.83
2017-08-11T03:40:16.606Z,7.13
2017-08-11T03:42:47.688Z,6.83
2017-08-11T03:45:19.322Z,9.70
2017-08-11T03:47:50.390Z,11.93
2017-08-11T03:50:22.099Z,9.13
2017-08-11T03:52:53.130Z,7.27
2017-08-11T03:55:39.200Z,8.50
2017-08-11T03:58:10.919Z,10.93
2017-08-11T04:00:42.111Z,8.40
2017-08-11T04:03:13.441Z,8.27
2017-08-11T04:05:44.514Z,7.93
2017-08-11T04:08:15.674Z,9.30
2017-08-11T04:10:47.625Z,16.00
2017-08-11T04:13:19.092Z,9.23
2017-08-11T04:15:50.190Z,8.43
2017-08-11T04:18:23.509Z,9.00
2017-08-11T04:20:54.586Z,10.20
2017-08-11T04:23:26.889Z,14.03
2017-08-11T04:25:57.985Z,10.77
2017-08-11T04:28:29.287Z,10.87
2017-08-11T04:31:00.781Z,10.50
2017-08-11T04:33:31.843Z,12.83
2017-08-11T04:36:04.461Z,11.20
2017-08-11T04:38:35.873Z,10.13
2017-08-11T04:41:06.973Z,11.30
2017-08-11T04:43:38.586Z,10.60
2017-08-11T04:46:09.968Z,10.53
2017-08-11T04:48:41.063Z,11.20
2017-08-11T04:51:12.699Z,10.10
2017-08-11T04:53:43.783Z,28.83
2017-08-11T04:56:14.878Z,9.50
2017-08-11T04:58:46.460Z,10.77
2017-08-11T05:01:17.568Z,14.10
2017-08-11T05:03:48.639Z,10.30
2017-08-11T05:06:20.891Z,11.70
2017-08-11T05:08:52.507Z,10.77
2017-08-11T05:11:25.390Z,10.47
2017-08-11T05:13:56.894Z,11.30
2017-08-11T05:16:28.186Z,11.33
2017-08-11T05:19:02.282Z,14.57
2017-08-11T05:21:33.757Z,11.23
2017-08-11T05:24:05.750Z,11.43
2017-08-11T05:26:36.840Z,12.37
2017-08-11T05:29:07.938Z,12.30
2017-08-11T05:31:39.044Z,16.43
2017-08-11T05:34:10.576Z,15.00
2017-08-11T05:36:41.765Z,13.40
2017-08-11T05:39:13.127Z,16.83
2017-08-11T05:41:44.195Z,15.20
2017-08-11T05:44:15.288Z,13.93
2017-08-11T05:46:46.855Z,13.30
2017-08-11T05:49:17.939Z,14.80
2017-08-11T05:51:49.312Z,14.63
2017-08-11T05:54:22.315Z,14.33
2017-08-11T05:56:53.383Z,16.83
2017-08-11T05:59:26.056Z,16.63
2017-08-11T06:01:57.156Z,14.37
2017-08-11T06:04:28.487Z,13.50
2017-08-11T06:07:00.471Z,15.77
2017-08-11T06:09:31.534Z,15.07
2017-08-11T06:12:04.216Z,17.40
2017-08-11T06:14:36.603Z,21.30
2017-08-11T06:17:07.878Z,16.17
2017-08-11T06:19:39.040Z,17.73
2017-08-11T06:22:15.475Z,20.53
2017-08-11T06:24:48.457Z,17.67
2017-08-11T06:27:22.002Z,18.87
2017-08-11T06:29:54.119Z,17.83
2017-08-11T06:32:26.424Z,18.93
2017-08-11T06:34:59.125Z,18.63
2017-08-11T06:37:30.582Z,20.00
2017-08-11T06:40:03.370Z,19.07
2017-08-11T06:42:42.745Z,19.20
2017-08-11T06:45:14.564Z,24.63
2017-08-11T06:47:48.031Z,22.77
2017-08-11T06:50:19.429Z,19.67
2017-08-11T06:52:50.749Z,22.93
2017-08-11T06:55:23.562Z,24.00
2017-08-11T06:57:54.843Z,27.80
2017-08-11T07:00:26.197Z,23.10
2017-08-11T07:05:53.509Z,22.27
2017-08-11T07:08:27.324Z,33.00
2017-08-11T07:11:02.359Z,24.10
2017-08-11T07:13:33.675Z,25.10
2017-08-11T07:16:07.577Z,25.20
2017-08-11T07:18:38.716Z,28.23
2017-08-11T07:21:10.181Z,26.30
2017-08-11T07:23:41.673Z,27.03
2017-08-11T07:26:13.965Z,26.63
2017-08-11T07:28:45.161Z,30.67
2017-08-11T07:31:17.847Z,21.97
2017-08-11T07:33:49.157Z,25.80
2017-08-11T07:36:21.555Z,25.07
2017-08-11T07:38:53.288Z,24.37
2017-08-11T07:41:26.516Z,22.30
2017-08-11T07:43:57.902Z,28.63
2017-08-11T07:46:29.207Z,24.20
2017-08-11T07:49:01.236Z,20.87
2017-08-11T07:51:32.870Z,21.90
2017-08-11T07:54:06.024Z,21.83
2017-08-11T07:56:38.195Z,27.33
2017-08-11T07:59:09.521Z,28.33
2017-08-11T08:01:41.101Z,24.73
2017-08-11T08:04:18.567Z,23.10
2017-08-11T08:06:50.500Z,25.93
2017-08-11T08:09:22.422Z,32.33
2017-08-11T08:11:54.465Z,26.83
2017-08-11T08:14:27.884Z,28.77
2017-08-11T08:16:59.445Z,28.03
2017-08-11T08:19:30.779Z,26.63
2017-08-11T08:22:02.932Z,27.80
2017-08-11T08:24:34.571Z,32.37
2017-08-11T08:27:05.770Z,24.83
2017-08-11T08:29:37.059Z,31.20
2017-08-11T08:32:09.110Z,27.30
2017-08-11T08:34:40.898Z,29.37
2017-08-11T08:37:11.997Z,34.77
2017-08-11T08:39:43.137Z,35.30
2017-08-11T08:42:16.544Z,40.47
2017-08-11T08:44:48.753Z,44.63
2017-08-11T08:47:20.668Z,52.97
2017-08-11T08:49:51.893Z,52.00
2017-08-11T08:52:26.197Z,50.33
2017-08-11T08:54:57.328Z,47.27
2017-08-11T08:57:28.462Z,43.20
2017-08-11T09:00:00.002Z,47.83
2017-08-11T09:02:31.860Z,43.90
2017-08-11T09:05:09.315Z,47.63
2017-08-11T09:07:41.463Z,53.00
2017-08-11T09:10:13.905Z,45.53
2017-08-11T09:14:14.686Z,50.63
2017-08-11T09:16:46.315Z,44.27
2017-08-11T09:19:17.928Z,47.90
2017-08-11T09:21:49.443Z,44.10
2017-08-11T09:24:30.151Z,47.47
2017-08-11T09:31:17.450Z,50.77
2017-08-11T09:36:29.955Z,37.60
2017-08-11T09:39:01.778Z,78.27
2017-08-11T09:41:45.191Z,48.40
2017-08-11T09:44:18.124Z,45.83
2017-08-11T09:46:49.599Z,43.90
2017-08-11T09:49:21.616Z,43.00
2017-08-11T09:51:52.816Z,46.57
2017-08-11T09:54:24.117Z,47.80
2017-08-11T09:56:55.466Z,45.03
2017-08-11T09:59:26.851Z,45.40
2017-08-11T10:01:58.471Z,49.03
2017-08-11T10:04:29.628Z,45.20
2017-08-11T10:07:00.986Z,51.27
2017-08-11T10:09:32.518Z,47.87
2017-08-11T10:12:04.803Z,52.40
2017-08-11T10:14:36.795Z,47.63
2017-08-11T10:17:08.348Z,44.50
2017-08-11T10:19:39.445Z,60.30
2017-08-11T10:22:10.990Z,44.93
2017-08-11T10:24:42.092Z,47.60
2017-08-11T10:27:13.562Z,49.90
2017-08-11T10:29:45.027Z,50.93
2017-08-11T10:32:17.700Z,42.53
2017-08-11T10:34:49.288Z,53.30
2017-08-11T10:37:21.081Z,49.43
2017-08-11T10:39:52.343Z,47.10
2017-08-11T10:42:23.543Z,54.13
2017-08-11T10:44:54.675Z,52.50
2017-08-11T10:47:26.161Z,49.07
2017-08-11T10:49:57.217Z,47.97
2017-08-11T10:52:28.869Z,45.60
2017-08-11T10:54:59.922Z,47.47
2017-08-11T10:57:31.041Z,44.27
2017-08-11T11:00:03.703Z,44.10
2017-08-11T11:02:34.742Z,43.73
2017-08-11T11:05:05.764Z,56.07
2017-08-11T11:07:37.093Z,48.57
2017-08-11T11:10:08.140Z,47.00
2017-08-11T11:12:39.385Z,46.00
2017-08-11T11:15:13.163Z,45.47
2017-08-11T11:17:44.187Z,37.40
2017-08-11T11:20:17.032Z,41.47
2017-08-11T11:22:48.715Z,42.20
2017-08-11T11:25:19.841Z,36.97
2017-08-11T11:27:50.854Z,33.90
2017-08-11T11:30:22.343Z,36.23
2017-08-11T11:32:53.376Z,35.57
2017-08-11T11:35:24.411Z,27.77
2017-08-11T11:37:56.754Z,38.63
2017-08-11T11:40:27.801Z,25.10
2017-08-11T11:42:58.998Z,27.13
2017-08-11T11:45:30.331Z,23.93
2017-08-11T11:48:01.573Z,19.63
2017-08-11T11:50:32.889Z,22.97
2017-08-11T11:53:04.578Z,24.53
2017-08-11T11:55:35.943Z,24.27
2017-08-11T11:58:07.039Z,18.87
2017-08-11T12:00:38.120Z,14.90
2017-08-11T12:05:49.756Z,13.17
2017-08-11T12:08:21.081Z,13.60
2017-08-11T12:10:52.140Z,10.10
2017-08-11T12:13:23.174Z,11.50
2017-08-11T12:15:54.458Z,23.43
2017-08-11T12:18:25.520Z,58.77
2017-08-11T12:20:56.945Z,38.40
2017-08-11T12:23:28.019Z,27.20
2017-08-11T12:25:59.064Z,27.70
2017-08-11T12:28:30.842Z,40.83
2017-08-11T12:31:03.275Z,56.57
2017-08-11T12:33:34.373Z,48.37
2017-08-11T12:36:06.790Z,20.13
2017-08-11T12:38:37.861Z,14.10
2017-08-11T12:41:09.187Z,7.40
2017-08-11T12:43:40.304Z,11.13
2017-08-11T12:46:11.453Z,9.77
2017-08-11T12:48:42.842Z,10.13
2017-08-11T12:51:13.947Z,12.27
2017-08-11T12:53:44.991Z,8.90
2017-08-11T12:56:19.960Z,8.13
2017-08-11T13:04:57.437Z,9.27
2017-08-11T13:07:36.925Z,10.03
2017-08-11T13:10:32.544Z,7.50
2017-08-11T13:13:22.957Z,8.20
2017-08-11T13:16:11.232Z,7.90
2017-08-11T13:23:39.648Z,6.03
2017-08-11T13:28:39.591Z,8.40
2017-08-11T13:35:39.459Z,9.07
2017-08-11T13:38:20.702Z,10.43
2017-08-11T13:40:52.566Z,13.73
2017-08-11T13:43:23.676Z,7.43
2017-08-11T13:45:56.763Z,7.40
2017-08-11T13:48:27.839Z,7.93
2017-08-11T13:50:59.751Z,9.47
2017-08-11T13:53:30.892Z,8.10
2017-08-11T13:56:03.429Z,8.77
2017-08-11T13:58:34.727Z,14.17
2017-08-11T14:04:06.926Z,9.60
2017-08-11T14:06:41.258Z,10.70
2017-08-11T14:09:15.014Z,9.27
2017-08-11T14:11:48.210Z,10.80
2017-08-11T14:14:19.910Z,10.57
2017-08-11T14:16:51.181Z,11.77
2017-08-11T14:19:23.630Z,14.10
2017-08-11T14:21:56.225Z,12.87
2017-08-11T14:24:31.528Z,11.10
2017-08-11T14:27:03.257Z,13.27
2017-08-11T14:29:34.382Z,12.70
2017-08-11T14:32:07.537Z,13.30
2017-08-11T14:34:41.444Z,12.63
2017-08-11T14:37:13.811Z,12.33
2017-08-11T14:39:47.900Z,13.40
2017-08-11T14:42:19.634Z,15.40
2017-08-11T14:44:54.456Z,15.57
2017-08-11T14:47:28.732Z,16.53
2017-08-11T14:50:15.188Z,14.60
2017-08-11T14:52:48.893Z,13.37
2017-08-11T14:55:20.370Z,14.13
2017-08-11T14:57:53.291Z,14.73
2017-08-11T15:03:21.716Z,13.47
2017-08-11T15:05:52.896Z,16.17
2017-08-11T15:08:44.167Z,19.70
2017-08-11T15:11:22.545Z,14.07
2017-08-11T15:13:53.813Z,16.60
2017-08-11T15:16:25.180Z,16.80
2017-08-11T15:18:56.241Z,16.30
2017-08-11T15:21:27.304Z,18.43
2017-08-11T15:23:58.664Z,17.90
2017-08-11T15:26:29.720Z,24.17
2017-08-11T15:29:01.120Z,18.40
2017-08-11T15:31:32.580Z,18.90
2017-08-11T15:34:04.515Z,18.70
2017-08-11T15:36:35.580Z,21.67
2017-08-11T15:39:06.682Z,20.90
2017-08-11T15:41:38.013Z,20.83
2017-08-11T15:44:09.239Z,17.87
2017-08-11T15:46:40.337Z,18.77
2017-08-11T15:49:11.431Z,16.13
2017-08-11T15:51:42.476Z,21.60
2017-08-11T15:54:13.955Z,18.47
2017-08-11T15:56:45.361Z,16.97
2017-08-11T16:05:26.743Z,17.03
2017-08-11T16:08:01.165Z,19.83
2017-08-11T16:10:33.935Z,16.40
2017-08-11T16:13:06.478Z,18.60
2017-08-11T16:15:38.843Z,13.63
2017-08-11T16:18:10.497Z,16.10
2017-08-11T16:20:42.928Z,15.23
2017-08-11T16:23:14.086Z,13.03
2017-08-11T16:25:47.084Z,17.20
2017-08-11T16:28:19.824Z,12.43
2017-08-11T16:30:51.078Z,14.67
2017-08-11T16:33:22.205Z,16.10
2017-08-11T16:35:55.210Z,16.03
2017-08-11T16:38:26.731Z,14.70
2017-08-11T16:40:58.921Z,15.33
2017-08-11T16:43:31.701Z,35.70
2017-08-11T16:46:06.786Z,16.20
2017-08-11T16:48:38.316Z,17.27
2017-08-11T16:53:40.165Z,16.23
2017-08-11T16:56:12.244Z,18.23
2017-08-11T17:16:13.920Z,23.03
2017-08-11T17:18:45.444Z,27.47
2017-08-11T17:21:20.095Z,26.13
2017-08-11T17:23:56.664Z,26.50
2017-08-11T17:26:27.819Z,26.50
2017-08-11T17:28:59.027Z,32.87
2017-08-11T17:31:30.265Z,30.43
2017-08-11T17:35:15.204Z,26.10
2017-08-11T17:37:46.295Z,29.37
2017-08-11T17:40:26.111Z,43.47
2017-08-11T17:42:58.131Z,38.13
2017-08-11T17:45:29.880Z,39.43
2017-08-11T17:48:03.458Z,39.57
2017-08-11T17:50:35.707Z,40.60
2017-08-11T17:53:36.045Z,45.20
2017-08-11T17:56:18.274Z,33.37
2017-08-11T17:58:49.790Z,41.77
2017-08-11T18:04:30.611Z,38.10
2017-08-11T18:07:04.272Z,33.20
2017-08-11T18:09:38.550Z,29.60
2017-08-11T18:12:11.580Z,33.73
2017-08-11T18:14:53.382Z,40.90
2017-08-11T18:17:35.773Z,37.10
2017-08-11T18:25:58.398Z,39.57
2017-08-11T18:28:30.228Z,33.90
2017-08-11T18:31:03.216Z,38.03
2017-08-11T18:33:38.747Z,38.13
2017-08-11T18:36:13.819Z,42.07
2017-08-11T18:38:49.669Z,42.77
2017-08-11T18:41:22.689Z,38.40
2017-08-11T18:43:54.572Z,35.10
2017-08-11T18:46:27.547Z,38.17
2017-08-11T18:49:01.608Z,38.57
2017-08-11T18:51:34.335Z,39.60
2017-08-11T18:54:07.556Z,36.60
2017-08-11T18:56:41.266Z,42.10
2017-08-11T18:59:12.775Z,40.73
2017-08-11T19:01:47.189Z,42.93
2017-08-11T19:04:19.860Z,38.77
2017-08-11T19:06:51.517Z,40.03
2017-08-11T19:09:23.086Z,37.20
2017-08-11T19:11:54.488Z,33.77
2017-08-11T19:14:31.905Z,43.07
2017-08-11T19:17:03.422Z,37.73
2017-08-11T19:19:37.420Z,37.93
2017-08-11T19:22:10.454Z,36.83
2017-08-11T19:24:43.843Z,36.00
2017-08-11T19:27:17.296Z,36.07
2017-08-11T19:29:50.142Z,42.53
2017-08-11T19:32:21.746Z,37.10
2017-08-11T19:34:54.008Z,39.73
2017-08-11T19:37:27.430Z,47.97
2017-08-11T19:39:58.918Z,42.70
2017-08-11T19:42:30.953Z,35.80
2017-08-11T19:45:04.622Z,38.30
2017-08-11T19:47:37.622Z,36.67
2017-08-11T19:50:13.539Z,38.40
2017-08-11T19:52:47.740Z,37.83
2017-08-11T19:55:22.182Z,36.83
2017-08-11T19:57:56.866Z,35.90
2017-08-11T20:00:31.752Z,36.83
2017-08-11T20:03:05.496Z,34.90
2017-08-11T20:05:40.558Z,33.77
2017-08-11T20:08:20.158Z,28.30
2017-08-11T20:10:53.330Z,32.87
2017-08-11T20:13:25.998Z,32.33
2017-08-11T20:15:58.342Z,34.77
2017-08-11T20:18:32.199Z,36.20
2017-08-11T20:21:06.583Z,27.60
2017-08-11T20:23:42.779Z,33.23
2017-08-11T20:26:17.427Z,37.20
2017-08-11T20:28:51.758Z,32.10
2017-08-11T20:31:25.760Z,37.40
2017-08-11T20:34:10.612Z,36.70
2017-08-11T20:36:49.818Z,34.37
2017-08-11T20:39:23.307Z,39.17
2017-08-11T20:41:55.270Z,35.40
2017-08-11T20:44:27.377Z,39.80
2017-08-11T20:47:03.169Z,45.13
2017-08-11T20:49:35.581Z,45.30
2017-08-11T20:52:12.963Z,33.43
2017-08-11T20:54:46.793Z,34.47
2017-08-11T20:57:18.348Z,28.03
2017-08-11T20:59:49.936Z,31.90
2017-08-11T21:02:21.551Z,29.33
2017-08-11T21:04:54.980Z,31.03
2017-08-11T21:07:28.023Z,30.30
2017-08-11T21:10:00.402Z,35.73
2017-08-11T21:12:32.151Z,29.23
2017-08-11T21:15:06.590Z,30.20
2017-08-11T21:17:38.834Z,32.30
2017-08-11T21:20:12.563Z,29.27
2017-08-11T21:22:46.037Z,31.37
2017-08-11T21:25:17.885Z,30.13
2017-08-11T21:27:49.152Z,27.57
2017-08-11T21:33:15.952Z,30.00
2017-08-11T21:45:40.752Z,35.63
2017-08-11T21:48:23.976Z,37.43
2017-08-11T21:50:59.591Z,33.03
2017-08-11T21:53:37.527Z,28.80
2017-08-11T21:56:21.557Z,48.53
2017-08-11T21:59:02.503Z,36.60
2017-08-11T22:01:34.235Z,42.13
2017-08-11T22:04:22.734Z,33.97
2017-08-11T22:07:32.786Z,35.10
2017-08-11T22:10:13.765Z,31.83
2017-08-11T22:12:46.949Z,29.80
2017-08-11T22:15:21.879Z,31.73
2017-08-11T22:17:56.521Z,30.93
2017-08-11T22:20:33.694Z,26.27
2017-08-11T22:23:08.501Z,27.33
2017-08-11T22:25:41.080Z,29.60
2017-08-11T22:28:21.089Z,29.63
2017-08-11T22:30:53.848Z,28.87
2017-08-11T22:33:27.910Z,32.40
2017-08-11T22:36:16.056Z,29.30
2017-08-11T22:38:48.317Z,27.27
2017-08-11T22:41:20.772Z,29.00
2017-08-11T22:43:53.330Z,25.77
2017-08-11T22:46:24.999Z,23.23
2017-08-11T22:48:56.779Z,28.70
2017-08-11T22:51:29.114Z,28.73
2017-08-11T22:54:05.114Z,29.03
2017-08-11T22:56:37.176Z,33.17
2017-08-11T22:59:08.682Z,30.57
2017-08-11T23:01:43.252Z,27.60
2017-08-11T23:04:23.822Z,29.97
2017-08-11T23:06:55.966Z,22.07
2017-08-11T23:09:28.381Z,31.53
2017-08-11T23:12:02.064Z,34.50
2017-08-11T23:14:33.809Z,27.37
2017-08-11T23:17:05.581Z,27.93
2017-08-11T23:19:39.366Z,24.23
2017-08-11T23:22:12.837Z,26.57
2017-08-11T23:24:45.689Z,22.07
2017-08-11T23:27:16.972Z,22.70
2017-08-11T23:29:48.951Z,23.07
2017-08-11T23:32:21.709Z,21.37
2017-08-11T23:34:54.307Z,25.67
2017-08-11T23:37:25.847Z,25.50
2017-08-11T23:39:57.047Z,23.43
2017-08-11T23:42:28.662Z,28.47
2017-08-11T23:45:01.372Z,21.50
2017-08-11T23:47:33.313Z,27.90
2017-08-11T23:50:05.790Z,25.93
2017-08-11T23:52:37.211Z,20.57
2017-08-11T23:55:10.743Z,25.83
2017-08-11T23:57:43.795Z,140.10
